Time;durP1;ratioP1;P1;durP2;ratioP2;P2;SDS_P1;SDS_P2;PMS_P1;PMS_P2;Temp;Humidity;BMP_temperature;BMP_pressure;BME280_temperature;BME280_humidity;BME280_pressure;Samples;Min_cycle;Max_cycle;Signal;HPM_P1;HPM_P2
2023/12/28 00:00:27;;;;;;;4.97;3.45;;;;;;;9.21;100.00;100625.91;6278538;22;20003;-76
2023/12/28 00:02:52;;;;;;;3.75;3.00;;;;;;;9.18;100.00;100622.84;6278678;22;20014;-76
2023/12/28 00:05:17;;;;;;;5.03;3.30;;;;;;;9.18;100.00;100623.66;6306115;22;20003;-77
2023/12/28 00:07:43;;;;;;;4.47;3.30;;;;;;;9.24;100.00;100596.13;6305974;22;20011;-76
2023/12/28 00:10:08;;;;;;;6.20;3.55;;;;;;;9.24;100.00;100630.00;6306139;22;20015;-74
2023/12/28 00:12:34;;;;;;;5.82;3.35;;;;;;;9.23;100.00;100639.03;6278547;22;20034;-75
2023/12/28 00:14:59;;;;;;;4.40;3.15;;;;;;;9.24;100.00;100632.66;6278671;22;20424;-75
2023/12/28 00:17:25;;;;;;;4.00;3.50;;;;;;;9.25;100.00;100653.81;6305903;22;20112;-75
2023/12/28 00:19:50;;;;;;;5.05;3.90;;;;;;;9.21;100.00;100633.09;6305668;22;20007;-75
2023/12/28 00:22:16;;;;;;;4.97;3.45;;;;;;;9.29;100.00;100635.53;6305772;22;20007;-76
2023/12/28 00:24:41;;;;;;;5.03;3.58;;;;;;;9.16;100.00;100636.38;6305870;22;20417;-78
2023/12/28 00:27:07;;;;;;;4.20;3.28;;;;;;;9.15;100.00;100636.59;6278488;22;20359;-76
2023/12/28 00:29:33;;;;;;;4.18;3.25;;;;;;;9.11;100.00;100643.38;6305804;22;20031;-78
2023/12/28 00:31:59;;;;;;;4.05;3.63;;;;;;;9.08;100.00;100649.13;6278397;22;20007;-76
2023/12/28 00:34:24;;;;;;;5.80;3.50;;;;;;;9.03;100.00;100633.75;6305644;22;20018;-76
2023/12/28 00:36:50;;;;;;;5.10;3.78;;;;;;;9.21;100.00;100649.91;6305761;22;20004;-77
2023/12/28 00:39:15;;;;;;;5.65;4.15;;;;;;;9.18;100.00;100653.00;6278190;22;20034;-76
2023/12/28 00:41:41;;;;;;;5.53;4.45;;;;;;;9.20;100.00;100650.94;6306362;22;20007;-75
2023/12/28 00:44:09;;;;;;;5.30;4.43;;;;;;;9.21;100.00;100649.09;6279589;22;20083;-76
2023/12/28 00:46:35;;;;;;;7.22;3.78;;;;;;;9.25;100.00;100651.16;6307070;22;20185;-75
2023/12/28 00:49:00;;;;;;;4.85;4.03;;;;;;;9.30;100.00;100666.53;6306861;22;20007;-76
2023/12/28 00:51:25;;;;;;;6.03;3.83;;;;;;;9.09;100.00;100659.59;6306993;22;20339;-78
2023/12/28 00:53:51;;;;;;;6.43;3.63;;;;;;;9.21;100.00;100665.91;6306992;22;20007;-75
2023/12/28 00:56:16;;;;;;;5.38;3.95;;;;;;;9.15;100.00;100669.41;6306843;22;20425;-77
2023/12/28 00:58:43;;;;;;;7.05;4.35;;;;;;;9.16;100.00;100675.56;6306873;22;20012;-77
2023/12/28 01:01:09;;;;;;;5.30;3.60;;;;;;;9.16;100.00;100678.25;6306830;22;20008;-76
2023/12/28 01:03:34;;;;;;;5.57;3.60;;;;;;;9.18;100.00;100678.84;6279484;22;20012;-75
2023/12/28 01:05:59;;;;;;;7.85;4.18;;;;;;;9.26;100.00;100668.78;6306918;22;20014;-77
2023/12/28 01:08:25;;;;;;;5.57;3.60;;;;;;;9.19;100.00;100688.50;6306790;22;20006;-77
2023/12/28 01:10:50;;;;;;;5.68;3.92;;;;;;;9.12;100.00;100690.34;6306763;22;20006;-77
2023/12/28 01:13:15;;;;;;;5.45;4.28;;;;;;;9.23;100.00;100695.03;6279526;22;20007;-77
2023/12/28 01:15:41;;;;;;;4.40;3.67;;;;;;;9.25;100.00;100682.31;6279613;22;20021;-78
2023/12/28 01:18:06;;;;;;;6.72;4.75;;;;;;;9.19;100.00;100691.16;6306911;22;20070;-76
2023/12/28 01:20:32;;;;;;;5.13;3.83;;;;;;;9.17;100.00;100694.03;6279531;22;20010;-76
2023/12/28 01:22:57;;;;;;;6.43;4.07;;;;;;;9.25;100.00;100691.16;6279431;22;20045;-75
2023/12/28 01:25:23;;;;;;;8.35;4.38;;;;;;;9.25;100.00;100709.84;6279223;22;20007;-77
2023/12/28 01:27:48;;;;;;;5.88;4.05;;;;;;;9.16;100.00;100704.91;6279316;22;20032;-75
2023/12/28 01:30:13;;;;;;;5.03;3.97;;;;;;;9.16;100.00;100697.72;6306754;22;20010;-76
2023/12/28 01:32:39;;;;;;;7.68;3.60;;;;;;;9.16;100.00;100696.91;6306672;22;20328;-76
2023/12/28 01:35:04;;;;;;;5.97;4.40;;;;;;;9.21;100.00;100710.44;6306889;22;20022;-77
2023/12/28 01:37:33;;;;;;;4.35;3.92;;;;;;;9.19;100.00;100740.00;6306752;22;20086;-76
2023/12/28 01:39:58;;;;;;;4.28;3.45;;;;;;;9.19;100.00;100699.16;6279305;22;20014;-78
2023/12/28 01:42:24;;;;;;;5.47;3.55;;;;;;;9.12;100.00;100717.03;6279509;22;20008;-77
2023/12/28 01:44:49;;;;;;;4.15;3.33;;;;;;;9.06;100.00;100699.19;6306532;22;20007;-77
2023/12/28 01:47:14;;;;;;;5.18;3.67;;;;;;;8.99;100.00;100713.38;6279443;22;20023;-76
2023/12/28 01:49:40;;;;;;;6.88;3.83;;;;;;;8.96;100.00;100715.59;6306571;22;20007;-79
2023/12/28 01:52:06;;;;;;;3.60;3.22;;;;;;;9.05;100.00;100702.91;6306499;22;20007;-76
2023/12/28 01:54:35;;;;;;;7.93;3.72;;;;;;;9.07;100.00;100719.50;6279706;22;20007;-78
2023/12/28 01:57:03;;;;;;;5.88;3.92;;;;;;;9.01;100.00;100729.16;6306708;22;20384;-78
2023/12/28 01:59:29;;;;;;;6.22;3.63;;;;;;;9.03;100.00;100707.63;6279300;22;20461;-79
2023/12/28 02:01:54;;;;;;;5.57;3.70;;;;;;;9.02;100.00;100698.78;6306624;22;20087;-77
2023/12/28 02:04:26;;;;;;;6.43;3.70;;;;;;;9.13;100.00;100710.66;6306634;22;20336;-79
2023/12/28 02:06:56;;;;;;;4.63;3.40;;;;;;;9.08;100.00;100713.16;6306682;22;20010;-78
2023/12/28 02:09:21;;;;;;;4.72;3.53;;;;;;;8.99;100.00;100702.69;6306701;22;20007;-77
2023/12/28 02:11:46;;;;;;;4.65;3.78;;;;;;;8.95;100.00;100720.13;6279196;22;20022;-78
2023/12/28 02:14:12;;;;;;;4.57;3.67;;;;;;;8.92;100.00;100725.03;6306769;22;20351;-80
2023/12/28 02:16:44;;;;;;;5.63;3.40;;;;;;;8.94;100.00;100723.00;6279394;22;20003;-76
2023/12/28 02:19:31;;;;;;;5.10;3.50;;;;;;;8.96;100.00;100721.78;6306799;22;20033;-79
2023/12/28 02:22:00;;;;;;;4.55;3.40;;;;;;;8.98;100.00;100724.25;6279339;22;20004;-78
2023/12/28 02:24:26;;;;;;;3.78;3.17;;;;;;;8.76;100.00;100691.63;6306610;22;20004;-79
2023/12/28 02:26:51;;;;;;;4.35;3.50;;;;;;;8.92;100.00;100704.53;6279410;22;20367;-77
2023/12/28 02:29:19;;;;;;;7.10;3.78;;;;;;;8.93;100.00;100700.00;6306843;22;20333;-77
2023/12/28 02:31:53;;;;;;;5.22;3.47;;;;;;;8.96;100.00;100705.78;6279654;22;20015;-76
2023/12/28 02:34:27;;;;;;;7.25;3.92;;;;;;;8.84;100.00;100694.09;6306638;22;20053;-78
2023/12/28 02:36:57;;;;;;;4.28;3.47;;;;;;;8.87;100.00;100672.34;6307379;22;20078;-81
2023/12/28 02:39:24;;;;;;;4.10;3.28;;;;;;;8.80;100.00;100676.88;6279523;22;20007;-80
2023/12/28 02:41:50;;;;;;;7.00;4.25;;;;;;;9.02;100.00;100700.66;6279468;22;20019;-80
2023/12/28 02:44:19;;;;;;;5.45;3.83;;;;;;;8.91;100.00;100686.91;6307041;22;20004;-81
2023/12/28 02:46:44;;;;;;;4.28;3.42;;;;;;;8.93;100.00;100692.03;6279751;22;20054;-79
2023/12/28 02:49:11;;;;;;;7.20;4.10;;;;;;;8.90;100.00;100695.91;6306854;22;20596;-79
2023/12/28 02:51:37;;;;;;;4.25;3.13;;;;;;;9.07;100.00;100725.66;6279614;22;20320;-80
2023/12/28 02:54:17;;;;;;;5.85;3.20;;;;;;;9.02;100.00;100701.47;6279592;22;20102;-81
2023/12/28 02:56:46;;;;;;;4.53;3.30;;;;;;;8.98;100.00;100676.25;6279169;22;20094;-81
2023/12/28 02:59:11;;;;;;;4.45;3.15;;;;;;;8.83;100.00;100647.13;6306462;22;20407;-79
2023/12/28 03:01:36;;;;;;;8.20;3.78;;;;;;;8.99;100.00;100688.56;6279214;22;20008;-78
2023/12/28 03:04:02;;;;;;;6.03;3.22;;;;;;;8.98;100.00;100663.72;6278652;22;20039;-80
2023/12/28 03:06:27;;;;;;;6.90;4.10;;;;;;;9.21;100.00;100679.25;6306539;22;20003;-79
2023/12/28 03:08:52;;;;;;;4.97;3.08;;;;;;;9.24;100.00;100654.00;6304887;22;20029;-76
2023/12/28 03:11:20;;;;;;;7.88;3.72;;;;;;;9.07;100.00;100666.16;6279043;22;20068;-79
2023/12/28 03:13:46;;;;;;;5.40;3.30;;;;;;;9.13;100.00;100658.16;6306587;22;20018;-78
2023/12/28 03:16:13;;;;;;;5.20;3.15;;;;;;;9.05;100.00;100670.88;6279359;22;20007;-78
2023/12/28 03:18:38;;;;;;;5.47;3.40;;;;;;;9.06;100.00;100678.69;6306663;22;20035;-79
2023/12/28 03:21:04;;;;;;;5.25;3.17;;;;;;;9.03;100.00;100670.28;6306686;22;20074;-80
2023/12/28 03:23:29;;;;;;;5.78;3.17;;;;;;;8.95;100.00;100666.78;6279364;22;20015;-78
2023/12/28 03:25:55;;;;;;;7.25;3.53;;;;;;;9.07;100.00;100677.66;6306300;22;20015;-79
2023/12/28 03:28:21;;;;;;;5.45;3.10;;;;;;;9.16;100.00;100683.56;6279208;22;20523;-79
2023/12/28 03:30:47;;;;;;;4.70;2.60;;;;;;;9.26;100.00;100687.47;6306526;22;20419;-78
2023/12/28 03:33:12;;;;;;;4.63;3.10;;;;;;;9.31;100.00;100705.53;6279334;22;20015;-80
2023/12/28 03:35:38;;;;;;;6.00;3.58;;;;;;;9.26;100.00;100746.16;6306665;22;20035;-81
2023/12/28 03:38:03;;;;;;;5.57;3.20;;;;;;;9.29;100.00;100688.91;6254082;22;20022;-79
2023/12/28 03:40:29;;;;;;;6.53;3.58;;;;;;;9.29;100.00;100702.25;6279644;22;20414;-80
2023/12/28 03:42:57;;;;;;;7.90;3.45;;;;;;;9.27;100.00;100696.28;6279291;22;20015;-79
2023/12/28 03:45:22;;;;;;;6.95;2.90;;;;;;;9.46;100.00;100665.22;6306412;22;19999;-78
2023/12/28 03:47:47;;;;;;;7.97;3.53;;;;;;;9.35;100.00;100687.25;6279156;22;20014;-78
2023/12/28 03:50:13;;;;;;;3.90;2.80;;;;;;;9.35;100.00;100674.72;6279394;22;20014;-78
2023/12/28 03:52:38;;;;;;;5.13;3.10;;;;;;;9.49;100.00;100678.97;6304949;22;20015;-78
2023/12/28 03:55:04;;;;;;;5.10;2.92;;;;;;;9.56;100.00;100700.31;6306147;22;20431;-79
2023/12/28 03:57:29;;;;;;;11.48;3.67;;;;;;;9.57;100.00;100696.63;6305695;22;20012;-78
2023/12/28 03:59:55;;;;;;;5.00;2.75;;;;;;;9.41;100.00;100683.72;6306010;22;20007;-78
2023/12/28 04:02:20;;;;;;;6.65;2.95;;;;;;;9.48;100.00;100696.00;6305955;22;20014;-78
2023/12/28 04:04:45;;;;;;;5.85;2.92;;;;;;;9.55;100.00;100699.50;6306002;22;20004;-78
2023/12/28 04:07:11;;;;;;;5.72;2.80;;;;;;;9.56;100.00;100713.66;6306024;22;20015;-78
2023/12/28 04:09:36;;;;;;;7.47;3.00;;;;;;;9.59;100.00;100698.03;6305848;22;20082;-79
2023/12/28 04:12:02;;;;;;;7.20;3.20;;;;;;;9.63;100.00;100675.22;6278683;22;20007;-76
2023/12/28 04:14:27;;;;;;;6.95;3.28;;;;;;;9.68;100.00;100703.13;6305806;22;20004;-76
2023/12/28 04:16:52;;;;;;;6.68;3.70;;;;;;;9.76;100.00;100722.41;6305911;22;20050;-78
2023/12/28 04:19:18;;;;;;;6.40;2.95;;;;;;;9.59;100.00;100711.38;6278153;22;20042;-77
2023/12/28 04:21:44;;;;;;;10.55;3.40;;;;;;;9.66;100.00;100706.03;6305100;22;20332;-77
2023/12/28 04:24:09;;;;;;;8.60;3.15;;;;;;;9.66;100.00;100692.66;6305374;22;20003;-79
2023/12/28 04:26:35;;;;;;;8.52;3.33;;;;;;;9.70;100.00;100683.19;6277978;22;20089;-76
2023/12/28 04:29:00;;;;;;;5.10;2.75;;;;;;;9.69;100.00;100672.75;6305209;22;20329;-78
2023/12/28 04:31:26;;;;;;;7.43;2.85;;;;;;;9.69;100.00;100702.09;6305120;22;20011;-79
2023/12/28 04:33:51;;;;;;;6.78;2.90;;;;;;;9.56;100.00;100679.78;6305054;22;20065;-80
2023/12/28 04:36:16;;;;;;;9.85;4.05;;;;;;;9.68;100.00;100708.47;6277828;22;20447;-80
2023/12/28 04:38:42;;;;;;;9.45;3.03;;;;;;;9.64;100.00;100700.06;6305379;22;20038;-76
2023/12/28 04:41:09;;;;;;;9.75;3.75;;;;;;;9.74;100.00;100703.09;6305120;22;20031;-75
2023/12/28 04:43:34;;;;;;;7.03;3.10;;;;;;;9.77;100.00;100709.88;6277473;22;20428;-76
2023/12/28 04:46:06;;;;;;;6.68;3.17;;;;;;;9.76;100.00;100698.38;6304970;22;20008;-76
2023/12/28 04:48:32;;;;;;;8.65;3.50;;;;;;;9.83;100.00;100683.16;6305042;22;20007;-76
2023/12/28 04:50:57;;;;;;;6.88;2.90;;;;;;;9.84;100.00;100718.69;6304950;22;20090;-76
2023/12/28 04:53:24;;;;;;;6.05;2.78;;;;;;;9.70;100.00;100685.88;6277775;22;20011;-78
2023/12/28 04:55:49;;;;;;;6.47;2.88;;;;;;;9.71;100.00;100690.19;6277480;22;20064;-78
2023/12/28 04:58:14;;;;;;;6.75;3.47;;;;;;;9.78;100.00;100706.16;6304931;22;20074;-77
2023/12/28 05:00:39;;;;;;;9.75;3.10;;;;;;;9.72;100.00;100712.34;6304841;22;20090;-77
2023/12/28 05:03:06;;;;;;;11.27;3.65;;;;;;;9.72;100.00;100721.19;6304957;22;20018;-77
2023/12/28 05:05:31;;;;;;;9.68;3.50;;;;;;;9.84;100.00;100714.16;6277449;22;20368;-79
2023/12/28 05:07:56;;;;;;;5.35;2.83;;;;;;;9.77;100.00;100692.00;6304885;22;20057;-77
2023/12/28 05:10:22;;;;;;;11.73;3.15;;;;;;;9.84;100.00;100734.72;6304803;22;20003;-77
2023/12/28 05:12:47;;;;;;;6.03;2.80;;;;;;;9.86;100.00;100711.28;6304856;22;20018;-76
2023/12/28 05:15:12;;;;;;;7.38;2.97;;;;;;;9.91;100.00;100730.97;6304798;22;20007;-78
2023/12/28 05:17:38;;;;;;;8.00;3.20;;;;;;;9.94;100.00;100729.72;6277425;22;20026;-78
2023/12/28 05:20:04;;;;;;;8.93;2.83;;;;;;;9.94;100.00;100721.72;6304609;22;20085;-77
2023/12/28 05:22:29;;;;;;;6.97;3.20;;;;;;;9.84;100.00;100721.38;6304662;22;20008;-77
2023/12/28 05:24:54;;;;;;;7.00;3.20;;;;;;;9.83;100.00;100707.19;6304666;22;20008;-79
2023/12/28 05:27:20;;;;;;;10.73;3.10;;;;;;;9.73;100.00;100701.47;6305397;22;20008;-76
2023/12/28 05:29:45;;;;;;;8.75;3.65;;;;;;;9.72;100.00;100723.84;6306133;22;20011;-78
2023/12/28 05:32:10;;;;;;;11.80;3.10;;;;;;;9.60;100.00;100722.88;6306562;22;20485;-78
2023/12/28 05:34:35;;;;;;;11.40;3.15;;;;;;;9.44;100.00;100710.81;6306236;22;20015;-79
2023/12/28 05:37:01;;;;;;;6.47;2.50;;;;;;;9.39;100.00;100710.63;6306200;22;20128;-78
2023/12/28 05:39:26;;;;;;;6.00;2.80;;;;;;;9.31;100.00;100727.69;6278807;22;20042;-77
2023/12/28 05:41:51;;;;;;;8.77;3.00;;;;;;;9.31;100.00;100725.00;6278899;22;20011;-76
2023/12/28 05:44:18;;;;;;;7.50;2.80;;;;;;;9.38;100.00;100719.66;6306162;22;20007;-77
2023/12/28 05:46:44;;;;;;;7.95;2.83;;;;;;;9.52;100.00;100736.44;6278754;22;20011;-76
2023/12/28 05:49:09;;;;;;;8.88;3.30;;;;;;;9.60;100.00;100714.88;6306096;22;20000;-77
2023/12/28 05:51:39;;;;;;;9.32;2.63;;;;;;;9.66;100.00;100729.22;6278893;22;20018;-77
2023/12/28 05:54:05;;;;;;;11.27;4.60;;;;;;;9.66;100.00;100708.69;6306261;22;20037;-77
2023/12/28 05:56:30;;;;;;;7.20;2.97;;;;;;;9.72;100.00;100728.38;6306175;22;20420;-77
2023/12/28 05:58:56;;;;;;;12.45;3.72;;;;;;;9.75;100.00;100738.63;6278558;22;20007;-75
2023/12/28 06:01:21;;;;;;;8.85;2.78;;;;;;;9.88;100.00;100731.41;6305980;22;20378;-76
2023/12/28 06:03:49;;;;;;;10.40;3.72;;;;;;;9.84;100.00;100729.38;6305753;22;20396;-77
2023/12/28 06:06:14;;;;;;;10.55;3.15;;;;;;;9.87;100.00;100734.28;6278292;22;20352;-76
2023/12/28 06:08:40;;;;;;;10.35;3.85;;;;;;;9.87;100.00;100734.28;6278626;22;20011;-76
2023/12/28 06:11:05;;;;;;;8.48;3.78;;;;;;;9.95;100.00;100760.75;6278760;22;20023;-77
2023/12/28 06:13:30;;;;;;;11.48;3.38;;;;;;;9.92;100.00;100764.66;6306064;22;20550;-77
2023/12/28 06:15:56;;;;;;;8.57;2.75;;;;;;;10.01;100.00;100733.19;6305811;22;20007;-76
2023/12/28 06:18:21;;;;;;;9.52;3.00;;;;;;;9.99;100.00;100755.81;6278510;22;19999;-77
2023/12/28 06:20:47;;;;;;;8.30;3.78;;;;;;;10.03;100.00;100751.66;6278478;22;20009;-77
2023/12/28 06:23:12;;;;;;;10.00;3.20;;;;;;;10.03;100.00;100752.50;6278488;22;20014;-76
2023/12/28 06:25:37;;;;;;;6.28;3.15;;;;;;;10.02;100.00;100736.69;6278427;22;20014;-77
2023/12/28 06:28:03;;;;;;;9.70;3.22;;;;;;;9.98;100.00;100768.34;6305947;22;20016;-76
2023/12/28 06:30:29;;;;;;;15.00;3.35;;;;;;;9.98;100.00;100740.81;6305772;22;20003;-78
2023/12/28 06:32:54;;;;;;;10.35;3.10;;;;;;;9.94;100.00;100767.13;6306054;22;20021;-79
2023/12/28 06:35:20;;;;;;;10.18;3.80;;;;;;;9.91;100.00;100733.66;6305921;22;20474;-77
2023/12/28 06:37:45;;;;;;;8.32;3.10;;;;;;;9.98;100.00;100772.88;6305367;22;20313;-77
2023/12/28 06:40:11;;;;;;;12.02;4.68;;;;;;;9.90;100.00;100760.56;6277799;22;20003;-78
2023/12/28 06:42:37;;;;;;;11.35;3.38;;;;;;;10.00;100.00;100768.13;6305596;22;20003;-79
2023/12/28 06:45:02;;;;;;;12.45;4.00;;;;;;;9.87;100.00;100755.66;6278340;22;20007;-78
2023/12/28 06:47:28;;;;;;;12.07;4.00;;;;;;;9.83;100.00;100773.09;6278436;22;20094;-80
2023/12/28 06:49:53;;;;;;;10.80;3.58;;;;;;;9.74;100.00;100758.34;6305839;22;19999;-80
2023/12/28 06:52:18;;;;;;;8.60;3.28;;;;;;;9.78;100.00;100748.88;6305921;22;20003;-79
2023/12/28 06:54:44;;;;;;;12.52;3.55;;;;;;;9.70;100.00;100762.47;6279170;22;20086;-78
2023/12/28 06:57:09;;;;;;;11.35;3.53;;;;;;;9.68;100.00;100762.69;6278945;22;20011;-79
2023/12/28 06:59:35;;;;;;;14.30;3.35;;;;;;;9.61;100.00;100760.06;6278283;22;20003;-78
2023/12/28 07:02:00;;;;;;;13.80;3.42;;;;;;;9.63;100.00;100752.66;6305654;22;20010;-80
2023/12/28 07:04:29;;;;;;;17.42;4.65;;;;;;;9.70;100.00;100776.66;6305729;22;20011;-78
2023/12/28 07:06:54;;;;;;;16.33;4.57;;;;;;;9.69;100.00;100761.66;6278315;22;20463;-77
2023/12/28 07:09:20;;;;;;;11.55;3.70;;;;;;;9.64;100.00;100766.81;6305777;22;20011;-79
2023/12/28 07:11:45;;;;;;;17.45;3.55;;;;;;;9.57;100.00;100766.84;6305766;22;20007;-76
2023/12/28 07:14:10;;;;;;;11.30;3.75;;;;;;;9.50;100.00;100776.69;6278392;22;20442;-78
2023/12/28 07:16:36;;;;;;;11.77;3.78;;;;;;;9.54;100.00;100788.63;6305734;22;20042;-78
2023/12/28 07:19:01;;;;;;;13.07;3.45;;;;;;;9.46;100.00;100802.16;6305598;22;20007;-76
2023/12/28 07:21:26;;;;;;;10.32;3.53;;;;;;;9.46;100.00;100785.31;6278172;22;20333;-77
2023/12/28 07:23:52;;;;;;;10.20;3.08;;;;;;;9.44;100.00;100800.72;6305685;22;20192;-76
2023/12/28 07:26:17;;;;;;;16.80;3.55;;;;;;;9.56;100.00;100812.44;6305780;22;20011;-75
2023/12/28 07:28:44;;;;;;;10.23;3.83;;;;;;;9.62;100.00;100822.28;6305687;22;20010;-77
2023/12/28 07:31:10;;;;;;;13.05;3.83;;;;;;;9.69;100.00;100807.06;6278265;22;20007;-76
2023/12/28 07:33:35;;;;;;;14.43;4.03;;;;;;;9.66;100.00;100806.66;6305695;22;20018;-76
2023/12/28 07:36:02;;;;;;;10.57;3.45;;;;;;;9.70;100.00;100811.34;6278385;22;20014;-79
2023/12/28 07:38:28;;;;;;;8.98;3.05;;;;;;;9.72;100.00;100797.78;6305783;22;19999;-78
2023/12/28 07:40:53;;;;;;;7.65;3.30;;;;;;;9.61;100.00;100808.09;6278265;22;20447;-78
2023/12/28 07:43:18;;;;;;;8.63;3.35;;;;;;;9.66;100.00;100803.97;6278161;22;20090;-77
2023/12/28 07:45:44;;;;;;;12.43;3.60;;;;;;;9.59;100.00;100812.84;6305533;22;20010;-79
2023/12/28 07:48:09;;;;;;;12.25;3.88;;;;;;;9.66;100.00;100807.47;6305401;22;20432;-76
2023/12/28 07:50:34;;;;;;;11.77;3.50;;;;;;;9.59;100.00;100825.34;6305360;22;20421;-77
2023/12/28 07:53:00;;;;;;;12.18;4.05;;;;;;;9.68;100.00;100820.59;6305605;22;20082;-77
2023/12/28 07:55:26;;;;;;;14.55;3.83;;;;;;;9.58;100.00;100826.38;6305502;22;20060;-77
2023/12/28 07:57:51;;;;;;;11.48;3.53;;;;;;;9.64;100.00;100846.91;6278122;22;20011;-76
2023/12/28 08:00:17;;;;;;;8.55;3.35;;;;;;;9.71;100.00;100831.69;6278047;22;20027;-77
2023/12/28 08:02:43;;;;;;;10.45;3.67;;;;;;;9.62;100.00;100825.75;6278100;22;20007;-76
2023/12/28 08:05:08;;;;;;;9.27;3.40;;;;;;;9.72;100.00;100862.69;6278169;22;20542;-75
2023/12/28 08:07:34;;;;;;;16.13;3.65;;;;;;;9.67;100.00;100854.50;6305498;22;20008;-77
2023/12/28 08:10:00;;;;;;;12.75;3.75;;;;;;;9.62;100.00;100856.97;6305320;22;20443;-77
2023/12/28 08:12:27;;;;;;;12.38;3.10;;;;;;;9.65;100.00;100871.75;6277974;22;20014;-76
2023/12/28 08:14:54;;;;;;;10.48;3.38;;;;;;;9.60;100.00;100851.84;6305310;22;20008;-78
2023/12/28 08:17:19;;;;;;;12.95;3.80;;;;;;;9.67;100.00;100859.00;6278306;22;20450;-76
2023/12/28 08:19:44;;;;;;;11.65;2.85;;;;;;;9.69;100.00;100844.44;6305160;22;20082;-76
2023/12/28 08:22:10;;;;;;;9.95;3.63;;;;;;;9.78;100.00;100856.53;6305250;22;20431;-76
2023/12/28 08:24:36;;;;;;;12.20;4.20;;;;;;;9.74;100.00;100851.81;6277888;22;20446;-76
2023/12/28 08:27:02;;;;;;;12.90;4.80;;;;;;;9.75;100.00;100829.41;6305291;22;20003;-76
2023/12/28 08:29:28;;;;;;;16.38;4.68;;;;;;;9.77;100.00;100841.53;6277962;22;20086;-75
2023/12/28 08:31:54;;;;;;;10.25;3.30;;;;;;;9.74;100.00;100838.47;6278111;22;20066;-78
2023/12/28 08:34:19;;;;;;;15.77;2.85;;;;;;;9.84;100.00;100847.69;6252512;22;20073;-77
2023/12/28 08:36:45;;;;;;;10.60;3.50;;;;;;;9.80;100.00;100817.06;6305237;22;20015;-80
2023/12/28 08:39:10;;;;;;;15.00;4.28;;;;;;;9.87;100.00;100841.13;6305348;22;20002;-77
2023/12/28 08:41:35;;;;;;;12.15;3.97;;;;;;;9.90;100.00;100840.69;6277964;22;20037;-77
2023/12/28 08:44:01;;;;;;;12.90;3.97;;;;;;;9.88;100.00;100853.44;6305161;22;20086;-78
2023/12/28 08:46:26;;;;;;;13.15;4.05;;;;;;;10.02;100.00;100860.38;6277836;22;20038;-75
2023/12/28 08:48:52;;;;;;;15.65;3.17;;;;;;;10.00;100.00;100861.63;6305165;22;20333;-75
2023/12/28 08:51:17;;;;;;;12.18;2.80;;;;;;;9.99;100.00;100868.00;6305162;22;20003;-76
2023/12/28 08:53:42;;;;;;;11.82;3.50;;;;;;;9.99;100.00;100870.66;6305180;22;20447;-77
2023/12/28 08:56:19;;;;;;;11.80;3.35;;;;;;;10.01;100.00;100837.38;6277782;22;20064;-77
2023/12/28 08:58:47;;;;;;;10.52;2.88;;;;;;;10.01;100.00;100892.66;6277506;22;19999;-76
2023/12/28 09:01:22;;;;;;;11.50;3.30;;;;;;;9.93;100.00;100886.50;6252280;22;20007;-79
2023/12/28 09:03:49;;;;;;;14.45;3.10;;;;;;;10.03;100.00;100887.91;6306324;22;20455;-77
2023/12/28 09:06:16;;;;;;;13.57;3.53;;;;;;;9.93;100.00;100869.66;6306279;22;20003;-76
2023/12/28 09:08:43;;;;;;;15.43;3.47;;;;;;;10.02;100.00;100903.13;6306562;22;20337;-76
2023/12/28 09:11:12;;;;;;;13.27;3.72;;;;;;;9.99;100.00;100887.50;6278992;22;20007;-78
2023/12/28 09:13:41;;;;;;;7.70;3.15;;;;;;;9.91;100.00;100882.41;6306435;22;20425;-78
2023/12/28 09:16:09;;;;;;;14.68;4.20;;;;;;;9.92;100.00;100884.84;6306379;22;20011;-78
2023/12/28 09:18:37;;;;;;;12.75;4.45;;;;;;;9.91;100.00;100912.59;6279322;22;20363;-77
2023/12/28 09:21:02;;;;;;;13.70;3.35;;;;;;;10.01;100.00;100885.44;6278982;22;20082;-75
2023/12/28 09:23:28;;;;;;;11.65;4.72;;;;;;;9.96;100.00;100897.78;6278773;22;20061;-75
2023/12/28 09:25:53;;;;;;;17.60;3.70;;;;;;;9.99;100.00;100884.84;6306446;22;20309;-77
2023/12/28 09:28:18;;;;;;;10.70;4.20;;;;;;;10.06;100.00;100880.28;6278909;22;20304;-77
2023/12/28 09:30:44;;;;;;;12.73;3.88;;;;;;;10.03;100.00;100898.59;6278998;22;20007;-77
2023/12/28 09:33:09;;;;;;;13.50;3.92;;;;;;;9.96;100.00;100905.81;6306364;22;20007;-76
2023/12/28 09:35:35;;;;;;;8.70;3.42;;;;;;;9.96;100.00;100881.78;6306407;22;20030;-75
2023/12/28 09:38:01;;;;;;;13.40;4.05;;;;;;;10.00;100.00;100902.50;6306296;22;20016;-75
2023/12/28 09:40:26;;;;;;;10.77;3.75;;;;;;;9.98;100.00;100914.44;6306300;22;20004;-76
2023/12/28 09:42:56;;;;;;;15.93;4.07;;;;;;;9.94;100.00;100919.38;6306283;22;20069;-76
2023/12/28 09:45:21;;;;;;;15.43;4.05;;;;;;;10.05;100.00;100918.72;6278941;22;20007;-77
2023/12/28 09:47:50;;;;;;;11.32;3.30;;;;;;;10.00;100.00;100915.88;6306375;22;20011;-76
2023/12/28 09:50:18;;;;;;;10.52;3.25;;;;;;;10.05;100.00;100926.75;6279025;22;20052;-76
2023/12/28 09:52:43;;;;;;;13.68;3.35;;;;;;;10.03;100.00;100917.28;6278767;22;20007;-77
2023/12/28 09:55:09;;;;;;;18.90;4.80;;;;;;;10.03;100.00;100934.16;6306346;22;20014;-78
2023/12/28 09:57:35;;;;;;;14.98;3.75;;;;;;;10.06;100.00;100946.25;6278967;22;20447;-77
2023/12/28 10:00:01;;;;;;;11.20;3.28;;;;;;;10.01;100.00;100941.53;6306329;22;20420;-76
2023/12/28 10:02:27;;;;;;;17.45;4.57;;;;;;;10.04;100.00;100922.44;6306261;22;20037;-76
2023/12/28 10:04:52;;;;;;;16.80;3.97;;;;;;;10.07;100.00;100945.22;6278684;22;20007;-75
2023/12/28 10:07:18;;;;;;;11.38;3.72;;;;;;;10.05;100.00;100932.09;6278869;22;20008;-79
2023/12/28 10:09:44;;;;;;;10.95;3.10;;;;;;;10.18;100.00;100920.56;6278861;22;20008;-75
2023/12/28 10:12:09;;;;;;;18.48;4.25;;;;;;;10.15;100.00;100943.19;6306408;22;20306;-80
2023/12/28 10:14:35;;;;;;;11.82;3.75;;;;;;;10.19;100.00;100920.34;6305831;22;20003;-77
2023/12/28 10:17:02;;;;;;;11.25;3.25;;;;;;;10.29;100.00;100938.66;6306360;22;20003;-77
2023/12/28 10:19:27;;;;;;;12.57;4.18;;;;;;;10.42;100.00;100937.81;6306164;22;20007;-75
2023/12/28 10:21:53;;;;;;;15.32;3.33;;;;;;;10.35;100.00;100935.13;6306078;22;20484;-77
2023/12/28 10:24:18;;;;;;;11.70;3.08;;;;;;;10.35;100.00;100940.47;6278771;22;20068;-80
2023/12/28 10:26:43;;;;;;;14.60;3.80;;;;;;;10.37;100.00;100941.09;6279108;22;20029;-77
2023/12/28 10:29:09;;;;;;;10.80;3.00;;;;;;;10.43;100.00;100934.09;6278698;22;20094;-78
2023/12/28 10:31:34;;;;;;;15.15;3.60;;;;;;;10.31;100.00;100936.59;6278814;22;20046;-82
2023/12/28 10:34:02;;;;;;;15.90;5.68;;;;;;;10.35;100.00;100919.09;6306100;22;20507;-81
2023/12/28 10:36:27;;;;;;;15.02;3.30;;;;;;;10.38;100.00;100942.72;6279042;22;20023;-78
2023/12/28 10:38:54;;;;;;;15.82;4.60;;;;;;;10.33;100.00;100939.88;6278735;22;20045;-80
2023/12/28 10:41:21;;;;;;;13.75;3.90;;;;;;;10.41;100.00;100917.44;6306091;22;20440;-82
2023/12/28 10:44:01;;;;;;;14.13;3.72;;;;;;;10.50;100.00;100897.47;6306185;22;20015;-81
2023/12/28 10:46:27;;;;;;;15.93;4.60;;;;;;;10.37;100.00;100906.34;6278708;22;20025;-84
2023/12/28 10:49:16;;;;;;;13.98;4.60;;;;;;;10.46;100.00;100931.81;6278827;22;20006;-80
2023/12/28 10:51:43;;;;;;;12.55;3.58;;;;;;;10.54;100.00;100930.75;6278802;22;20011;-83
2023/12/28 10:54:35;;;;;;;13.50;3.38;;;;;;;10.73;100.00;100923.69;6279303;22;20007;-81
2023/12/28 10:57:04;;;;;;;11.38;3.80;;;;;;;10.99;100.00;100961.03;6290003;22;20018;-81
2023/12/28 10:59:32;;;;;;;14.27;3.92;;;;;;;10.97;100.00;100927.47;6279148;22;20011;-81
2023/12/28 11:02:00;;;;;;;11.43;2.92;;;;;;;11.14;100.00;100920.56;6278379;22;20011;-80
2023/12/28 11:04:43;;;;;;;12.00;3.65;;;;;;;11.17;100.00;100910.25;6278408;22;20018;-78
2023/12/28 11:07:13;;;;;;;15.38;3.75;;;;;;;11.02;100.00;100922.31;6278620;22;20018;-79
2023/12/28 11:09:41;;;;;;;17.30;3.78;;;;;;;10.92;100.00;100908.56;6278430;22;20007;-77
2023/12/28 11:12:08;;;;;;;11.10;3.83;;;;;;;11.04;100.00;100914.88;6278644;22;20011;-77
2023/12/28 11:14:34;;;;;;;15.13;4.03;;;;;;;10.94;100.00;100915.34;6279070;22;20086;-79